Yarmouth, Canada
Current Conditions -  °F | °C
As of 12:00 AM on Wednesday 22 Oct 2014 (Local Time) from CYQI Reporting Station
Overcast Overcast  
Wind Chill: 54°   Ceiling: 15000
Heat Index: 54°   Visibility: 15mi
Dew Point: 50°   Wind: 14mph
Humidity: 88%   Direction: 90°E
Pressure: 30.15"   Gusts: NA
Location:  43.84°N, 66.12°W
Report Text: CYQI 220300Z 09012KT 15SM SCT050 OVC150 12/10 A3015 RMK SC4AS4 SLP210
Loading
Personal Weather Stations






























Interactive Weather Map
Tropical Storm Tracking
New forecast layout! Learn more

10-Day Weather Forecast

Advertisements
Track Severe Weather on mobile